sensor_id;sensor_type;location;lat;lon;timestamp;pressure;altitude;pressure_sealevel;temperature;humidity
28432;BME280;15664;51.302;7.744;2023-02-12T00:01:29;83411.78;;;-146.98;100.00
28432;BME280;15664;51.302;7.744;2023-02-12T00:03:55;83458.63;;;-146.98;100.00
28432;BME280;15664;51.302;7.744;2023-02-12T00:06:21;83438.25;;;-146.98;100.00
28432;BME280;15664;51.302;7.744;2023-02-12T00:08:51;83458.63;;;-146.98;100.00
28432;BME280;15664;51.302;7.744;2023-02-12T00:11:20;83401.59;;;-146.98;100.00
28432;BME280;15664;51.302;7.744;2023-02-12T00:13:46;83489.16;;;-146.98;100.00
28432;BME280;15664;51.302;7.744;2023-02-12T00:16:15;83421.97;;;-146.98;100.00
28432;BME280;15664;51.302;7.744;2023-02-12T00:18:41;83409.75;;;-146.98;100.00
28432;BME280;15664;51.302;7.744;2023-02-12T00:21:07;83430.09;;;-146.98;100.00
28432;BME280;15664;51.302;7.744;2023-02-12T00:23:34;83432.13;;;-146.98;100.00
28432;BME280;15664;51.302;7.744;2023-02-12T00:25:59;83462.69;;;-146.98;100.00
28432;BME280;15664;51.302;7.744;2023-02-12T00:28:26;83421.97;;;-146.98;100.00
28432;BME280;15664;51.302;7.744;2023-02-12T00:30:51;83458.63;;;-146.98;100.00
28432;BME280;15664;51.302;7.744;2023-02-12T00:33:17;83458.63;;;-146.98;100.00
28432;BME280;15664;51.302;7.744;2023-02-12T00:35:43;83381.22;;;-146.98;100.00
28432;BME280;15664;51.302;7.744;2023-02-12T00:38:09;83436.22;;;-146.98;100.00
28432;BME280;15664;51.302;7.744;2023-02-12T00:40:34;83430.09;;;-146.98;100.00
28432;BME280;15664;51.302;7.744;2023-02-12T00:43:01;83462.69;;;-146.98;100.00
28432;BME280;15664;51.302;7.744;2023-02-12T00:45:27;83462.69;;;-146.98;100.00
28432;BME280;15664;51.302;7.744;2023-02-12T00:47:52;83460.66;;;-146.98;100.00
28432;BME280;15664;51.302;7.744;2023-02-12T00:50:17;83426.03;;;-146.98;100.00
28432;BME280;15664;51.302;7.744;2023-02-12T00:52:43;83460.66;;;-146.98;100.00
28432;BME280;15664;51.302;7.744;2023-02-12T00:55:08;83399.56;;;-146.98;100.00
28432;BME280;15664;51.302;7.744;2023-02-12T00:57:34;83466.75;;;-146.98;100.00
28432;BME280;15664;51.302;7.744;2023-02-12T01:00:00;83462.69;;;-146.98;100.00
28432;BME280;15664;51.302;7.744;2023-02-12T01:02:25;83434.19;;;-146.98;100.00
28432;BME280;15664;51.302;7.744;2023-02-12T01:04:51;83430.09;;;-146.98;100.00
28432;BME280;15664;51.302;7.744;2023-02-12T01:07:17;83466.75;;;-146.98;100.00
28432;BME280;15664;51.302;7.744;2023-02-12T01:09:43;83454.53;;;-146.98;100.00
28432;BME280;15664;51.302;7.744;2023-02-12T01:12:08;83438.25;;;-146.98;100.00
28432;BME280;15664;51.302;7.744;2023-02-12T01:14:34;83446.41;;;-146.98;100.00
28432;BME280;15664;51.302;7.744;2023-02-12T01:16:59;83413.81;;;-146.98;100.00
28432;BME280;15664;51.302;7.744;2023-02-12T01:19:25;83446.41;;;-146.98;100.00
28432;BME280;15664;51.302;7.744;2023-02-12T01:21:52;83446.41;;;-146.98;100.00
28432;BME280;15664;51.302;7.744;2023-02-12T01:24:17;83405.66;;;-146.98;100.00
28432;BME280;15664;51.302;7.744;2023-02-12T01:26:43;83413.81;;;-146.98;100.00
28432;BME280;15664;51.302;7.744;2023-02-12T01:29:09;83468.81;;;-146.98;100.00
28432;BME280;15664;51.302;7.744;2023-02-12T01:31:37;83434.19;;;-146.98;100.00
28432;BME280;15664;51.302;7.744;2023-02-12T01:34:04;83430.09;;;-146.98;100.00
28432;BME280;15664;51.302;7.744;2023-02-12T01:36:32;83444.34;;;-146.98;100.00
28432;BME280;15664;51.302;7.744;2023-02-12T01:38:58;83417.88;;;-146.98;100.00
28432;BME280;15664;51.302;7.744;2023-02-12T01:41:32;83470.84;;;-146.98;100.00
28432;BME280;15664;51.302;7.744;2023-02-12T01:44:09;83511.56;;;-146.98;100.00
28432;BME280;15664;51.302;7.744;2023-02-12T01:46:35;83417.88;;;-146.98;100.00
28432;BME280;15664;51.302;7.744;2023-02-12T01:49:02;83446.41;;;-146.98;100.00
28432;BME280;15664;51.302;7.744;2023-02-12T01:51:28;83407.69;;;-146.98;100.00
28432;BME280;15664;51.302;7.744;2023-02-12T01:53:55;83430.09;;;-146.98;100.00
28432;BME280;15664;51.302;7.744;2023-02-12T01:56:24;83417.88;;;-146.98;100.00
28432;BME280;15664;51.302;7.744;2023-02-12T01:58:51;83426.03;;;-146.98;100.00
28432;BME280;15664;51.302;7.744;2023-02-12T02:01:20;83421.97;;;-146.98;100.00
28432;BME280;15664;51.302;7.744;2023-02-12T02:03:49;83442.31;;;-146.98;100.00
28432;BME280;15664;51.302;7.744;2023-02-12T02:06:26;83409.75;;;-146.98;100.00
28432;BME280;15664;51.302;7.744;2023-02-12T02:08:54;83474.91;;;-146.98;100.00
28432;BME280;15664;51.302;7.744;2023-02-12T02:11:20;83466.75;;;-146.98;100.00
28432;BME280;15664;51.302;7.744;2023-02-12T02:14:05;83460.66;;;-146.98;100.00
28432;BME280;15664;51.302;7.744;2023-02-12T02:17:12;83430.09;;;-146.98;100.00
28432;BME280;15664;51.302;7.744;2023-02-12T02:22:36;83434.19;;;-146.98;100.00
28432;BME280;15664;51.302;7.744;2023-02-12T02:35:54;83405.66;;;-146.98;100.00
28432;BME280;15664;51.302;7.744;2023-02-12T02:38:32;83432.13;;;-146.98;100.00
28432;BME280;15664;51.302;7.744;2023-02-12T02:44:23;83426.03;;;-146.98;100.00
28432;BME280;15664;51.302;7.744;2023-02-12T02:46:52;83434.19;;;-146.98;100.00
28432;BME280;15664;51.302;7.744;2023-02-12T02:49:23;83456.56;;;-146.98;100.00
28432;BME280;15664;51.302;7.744;2023-02-12T02:51:56;83395.47;;;-146.98;100.00
28432;BME280;15664;51.302;7.744;2023-02-12T02:54:30;83411.78;;;-146.98;100.00
28432;BME280;15664;51.302;7.744;2023-02-12T02:57:04;83407.69;;;-146.98;100.00
28432;BME280;15664;51.302;7.744;2023-02-12T02:59:36;83391.41;;;-146.98;100.00
28432;BME280;15664;51.302;7.744;2023-02-12T03:02:12;83436.22;;;-146.98;100.00
28432;BME280;15664;51.302;7.744;2023-02-12T03:04:51;83450.47;;;-146.98;100.00
28432;BME280;15664;51.302;7.744;2023-02-12T03:07:25;83434.19;;;-146.98;100.00
28432;BME280;15664;51.302;7.744;2023-02-12T03:09:56;83446.41;;;-146.98;100.00
28432;BME280;15664;51.302;7.744;2023-02-12T03:12:32;83434.19;;;-146.98;100.00
28432;BME280;15664;51.302;7.744;2023-02-12T03:15:10;83428.06;;;-146.98;100.00
28432;BME280;15664;51.302;7.744;2023-02-12T03:17:42;83478.97;;;-146.98;100.00
28432;BME280;15664;51.302;7.744;2023-02-12T03:20:11;83476.94;;;-146.98;100.00
28432;BME280;15664;51.302;7.744;2023-02-12T03:22:42;83450.47;;;-146.98;100.00
28432;BME280;15664;51.302;7.744;2023-02-12T03:25:14;83458.63;;;-146.98;100.00
28432;BME280;15664;51.302;7.744;2023-02-12T03:27:48;83446.41;;;-146.98;100.00
28432;BME280;15664;51.302;7.744;2023-02-12T03:30:17;83450.47;;;-146.98;100.00
28432;BME280;15664;51.302;7.744;2023-02-12T03:32:54;83470.84;;;-146.98;100.00
28432;BME280;15664;51.302;7.744;2023-02-12T03:35:31;83456.56;;;-146.98;100.00
28432;BME280;15664;51.302;7.744;2023-02-12T03:38:09;83497.31;;;-146.98;100.00
28432;BME280;15664;51.302;7.744;2023-02-12T03:40:46;83421.97;;;-146.98;100.00
28432;BME280;15664;51.302;7.744;2023-02-12T03:43:29;83419.91;;;-146.98;100.00
28432;BME280;15664;51.302;7.744;2023-02-12T03:48:53;83452.50;;;-146.98;100.00
28432;BME280;15664;51.302;7.744;2023-02-12T03:51:25;83438.25;;;-146.98;100.00
28432;BME280;15664;51.302;7.744;2023-02-12T03:53:54;83442.31;;;-146.98;100.00
28432;BME280;15664;51.302;7.744;2023-02-12T03:56:27;83452.50;;;-146.98;100.00
28432;BME280;15664;51.302;7.744;2023-02-12T03:58:56;83462.69;;;-146.98;100.00
28432;BME280;15664;51.302;7.744;2023-02-12T04:01:22;83464.72;;;-146.98;100.00
28432;BME280;15664;51.302;7.744;2023-02-12T04:03:48;83485.09;;;-146.98;100.00
28432;BME280;15664;51.302;7.744;2023-02-12T04:06:22;83424.00;;;-146.98;100.00
28432;BME280;15664;51.302;7.744;2023-02-12T04:08:48;83468.81;;;-146.98;100.00
28432;BME280;15664;51.302;7.744;2023-02-12T04:19:36;83450.47;;;-146.98;100.00
28432;BME280;15664;51.302;7.744;2023-02-12T04:22:28;83481.03;;;-146.98;100.00
28432;BME280;15664;51.302;7.744;2023-02-12T04:25:14;83450.47;;;-146.98;100.00
28432;BME280;15664;51.302;7.744;2023-02-12T04:27:49;83419.91;;;-146.98;100.00
28432;BME280;15664;51.302;7.744;2023-02-12T04:30:36;83434.19;;;-146.98;100.00
28432;BME280;15664;51.302;7.744;2023-02-12T04:33:04;83478.97;;;-146.98;100.00
28432;BME280;15664;51.302;7.744;2023-02-12T04:38:10;83460.66;;;-146.98;100.00
28432;BME280;15664;51.302;7.744;2023-02-12T04:40:39;83495.28;;;-146.98;100.00
28432;BME280;15664;51.302;7.744;2023-02-12T04:43:05;83478.97;;;-146.98;100.00
28432;BME280;15664;51.302;7.744;2023-02-12T04:45:33;83485.09;;;-146.98;100.00
28432;BME280;15664;51.302;7.744;2023-02-12T04:48:00;83556.38;;;-146.98;100.00
28432;BME280;15664;51.302;7.744;2023-02-12T04:50:26;83468.81;;;-146.98;100.00
28432;BME280;15664;51.302;7.744;2023-02-12T04:52:55;83460.66;;;-146.98;100.00
28432;BME280;15664;51.302;7.744;2023-02-12T04:55:21;83466.75;;;-146.98;100.00
28432;BME280;15664;51.302;7.744;2023-02-12T04:57:47;83517.69;;;-146.98;100.00
28432;BME280;15664;51.302;7.744;2023-02-12T05:00:13;83466.75;;;-146.98;100.00
28432;BME280;15664;51.302;7.744;2023-02-12T05:02:39;83466.75;;;-146.98;100.00
28432;BME280;15664;51.302;7.744;2023-02-12T05:05:05;83474.91;;;-146.98;100.00
28432;BME280;15664;51.302;7.744;2023-02-12T05:07:31;83464.72;;;-146.98;100.00
28432;BME280;15664;51.302;7.744;2023-02-12T05:09:56;83464.72;;;-146.98;100.00
28432;BME280;15664;51.302;7.744;2023-02-12T05:12:22;83464.72;;;-146.98;100.00
28432;BME280;15664;51.302;7.744;2023-02-12T05:14:48;83483.06;;;-146.98;100.00
28432;BME280;15664;51.302;7.744;2023-02-12T05:17:13;83515.63;;;-146.98;100.00
28432;BME280;15664;51.302;7.744;2023-02-12T05:19:38;83485.09;;;-146.98;100.00
28432;BME280;15664;51.302;7.744;2023-02-12T05:22:04;83483.06;;;-146.98;100.00
28432;BME280;15664;51.302;7.744;2023-02-12T05:24:30;83458.63;;;-146.98;100.00
28432;BME280;15664;51.302;7.744;2023-02-12T05:26:55;83470.84;;;-146.98;100.00
28432;BME280;15664;51.302;7.744;2023-02-12T05:29:20;83483.06;;;-146.98;100.00
28432;BME280;15664;51.302;7.744;2023-02-12T05:31:46;83464.72;;;-146.98;100.00
28432;BME280;15664;51.302;7.744;2023-02-12T05:34:12;83538.03;;;-146.98;100.00
28432;BME280;15664;51.302;7.744;2023-02-12T05:36:38;83456.56;;;-146.98;100.00
28432;BME280;15664;51.302;7.744;2023-02-12T05:39:05;83493.25;;;-146.98;100.00
28432;BME280;15664;51.302;7.744;2023-02-12T05:41:32;83489.16;;;-146.98;100.00
28432;BME280;15664;51.302;7.744;2023-02-12T05:44:01;83527.84;;;-146.98;100.00
28432;BME280;15664;51.302;7.744;2023-02-12T05:46:27;83495.28;;;-146.98;100.00
28432;BME280;15664;51.302;7.744;2023-02-12T05:48:52;83456.56;;;-146.98;100.00
28432;BME280;15664;51.302;7.744;2023-02-12T05:51:20;83491.19;;;-146.98;100.00
28432;BME280;15664;51.302;7.744;2023-02-12T05:53:46;83478.97;;;-146.98;100.00
28432;BME280;15664;51.302;7.744;2023-02-12T05:56:18;83499.34;;;-146.98;100.00
28432;BME280;15664;51.302;7.744;2023-02-12T05:58:46;83468.81;;;-146.98;100.00
28432;BME280;15664;51.302;7.744;2023-02-12T06:01:21;83491.19;;;-146.98;100.00
28432;BME280;15664;51.302;7.744;2023-02-12T06:03:47;83503.41;;;-146.98;100.00
28432;BME280;15664;51.302;7.744;2023-02-12T06:06:13;83513.59;;;-146.98;100.00
28432;BME280;15664;51.302;7.744;2023-02-12T06:08:39;83517.69;;;-146.98;100.00
28432;BME280;15664;51.302;7.744;2023-02-12T06:11:08;83481.03;;;-146.98;100.00
28432;BME280;15664;51.302;7.744;2023-02-12T06:13:35;83481.03;;;-146.98;100.00
28432;BME280;15664;51.302;7.744;2023-02-12T06:16:00;83446.41;;;-146.98;100.00
28432;BME280;15664;51.302;7.744;2023-02-12T06:18:27;83448.44;;;-146.98;100.00
28432;BME280;15664;51.302;7.744;2023-02-12T06:20:52;83499.34;;;-146.98;100.00
28432;BME280;15664;51.302;7.744;2023-02-12T06:23:22;83450.47;;;-146.98;100.00
28432;BME280;15664;51.302;7.744;2023-02-12T06:25:53;83487.13;;;-146.98;100.00
28432;BME280;15664;51.302;7.744;2023-02-12T06:28:19;83456.56;;;-146.98;100.00
28432;BME280;15664;51.302;7.744;2023-02-12T06:30:44;83460.66;;;-146.98;100.00
28432;BME280;15664;51.302;7.744;2023-02-12T06:33:10;83491.19;;;-146.98;100.00
28432;BME280;15664;51.302;7.744;2023-02-12T06:35:37;83470.84;;;-146.98;100.00
28432;BME280;15664;51.302;7.744;2023-02-12T06:38:02;83487.13;;;-146.98;100.00
28432;BME280;15664;51.302;7.744;2023-02-12T06:40:28;83491.19;;;-146.98;100.00
28432;BME280;15664;51.302;7.744;2023-02-12T06:42:53;83483.06;;;-146.98;100.00
28432;BME280;15664;51.302;7.744;2023-02-12T06:45:19;83474.91;;;-146.98;100.00
28432;BME280;15664;51.302;7.744;2023-02-12T06:47:44;83478.97;;;-146.98;100.00
28432;BME280;15664;51.302;7.744;2023-02-12T06:50:10;83495.28;;;-146.98;100.00
28432;BME280;15664;51.302;7.744;2023-02-12T06:52:35;83472.88;;;-146.98;100.00
28432;BME280;15664;51.302;7.744;2023-02-12T06:55:01;83472.88;;;-146.98;100.00
28432;BME280;15664;51.302;7.744;2023-02-12T06:57:27;83458.63;;;-146.98;100.00
28432;BME280;15664;51.302;7.744;2023-02-12T06:59:53;83413.81;;;-146.98;100.00
28432;BME280;15664;51.302;7.744;2023-02-12T07:02:19;83466.75;;;-146.98;100.00
28432;BME280;15664;51.302;7.744;2023-02-12T07:04:44;83478.97;;;-146.98;100.00
28432;BME280;15664;51.302;7.744;2023-02-12T07:07:10;83468.81;;;-146.98;100.00
28432;BME280;15664;51.302;7.744;2023-02-12T07:09:35;83430.09;;;-146.98;100.00
28432;BME280;15664;51.302;7.744;2023-02-12T07:12:01;83456.56;;;-146.98;100.00
28432;BME280;15664;51.302;7.744;2023-02-12T07:14:27;83468.81;;;-146.98;100.00
28432;BME280;15664;51.302;7.744;2023-02-12T07:16:56;83513.59;;;-146.98;100.00
28432;BME280;15664;51.302;7.744;2023-02-12T07:19:22;83450.47;;;-146.98;100.00
28432;BME280;15664;51.302;7.744;2023-02-12T07:21:48;83487.13;;;-146.98;100.00
28432;BME280;15664;51.302;7.744;2023-02-12T07:24:13;83434.19;;;-146.98;100.00
28432;BME280;15664;51.302;7.744;2023-02-12T07:26:40;83450.47;;;-146.98;100.00
28432;BME280;15664;51.302;7.744;2023-02-12T07:29:06;83483.06;;;-146.98;100.00
28432;BME280;15664;51.302;7.744;2023-02-12T07:31:32;83507.50;;;-146.98;100.00
28432;BME280;15664;51.302;7.744;2023-02-12T07:33:59;83436.22;;;-146.98;100.00
28432;BME280;15664;51.302;7.744;2023-02-12T07:36:27;83464.72;;;-146.98;100.00
28432;BME280;15664;51.302;7.744;2023-02-12T07:38:55;83450.47;;;-146.98;100.00
28432;BME280;15664;51.302;7.744;2023-02-12T07:41:23;83466.75;;;-146.98;100.00
28432;BME280;15664;51.302;7.744;2023-02-12T07:43:55;83436.22;;;-146.98;100.00
28432;BME280;15664;51.302;7.744;2023-02-12T07:46:24;83481.03;;;-146.98;100.00
28432;BME280;15664;51.302;7.744;2023-02-12T07:48:58;83409.75;;;-146.98;100.00
28432;BME280;15664;51.302;7.744;2023-02-12T07:51:24;83458.63;;;-146.98;100.00
28432;BME280;15664;51.302;7.744;2023-02-12T07:53:51;83421.97;;;-146.98;100.00
28432;BME280;15664;51.302;7.744;2023-02-12T07:56:22;83452.50;;;-146.98;100.00
28432;BME280;15664;51.302;7.744;2023-02-12T07:58:50;83466.75;;;-146.98;100.00
28432;BME280;15664;51.302;7.744;2023-02-12T08:03:45;83430.09;;;-146.98;100.00
28432;BME280;15664;51.302;7.744;2023-02-12T08:06:17;83424.00;;;-146.98;100.00
28432;BME280;15664;51.302;7.744;2023-02-12T08:08:47;83413.81;;;-146.98;100.00
28432;BME280;15664;51.302;7.744;2023-02-12T08:11:14;83454.53;;;-146.98;100.00
28432;BME280;15664;51.302;7.744;2023-02-12T08:13:41;83446.41;;;-146.98;100.00
28432;BME280;15664;51.302;7.744;2023-02-12T08:16:12;83421.97;;;-146.98;100.00
28432;BME280;15664;51.302;7.744;2023-02-12T08:18:38;83413.81;;;-146.98;100.00
28432;BME280;15664;51.302;7.744;2023-02-12T08:21:06;83391.41;;;-146.98;100.00
28432;BME280;15664;51.302;7.744;2023-02-12T08:23:32;83472.88;;;-146.98;100.00
28432;BME280;15664;51.302;7.744;2023-02-12T08:26:13;83403.63;;;-146.98;100.00
28432;BME280;15664;51.302;7.744;2023-02-12T08:28:51;83421.97;;;-146.98;100.00
28432;BME280;15664;51.302;7.744;2023-02-12T08:31:21;83407.69;;;-146.98;100.00
28432;BME280;15664;51.302;7.744;2023-02-12T08:33:48;83373.09;;;-146.98;100.00
28432;BME280;15664;51.302;7.744;2023-02-12T08:36:17;83389.38;;;-146.98;100.00
28432;BME280;15664;51.302;7.744;2023-02-12T08:38:44;83403.63;;;-146.98;100.00
28432;BME280;15664;51.302;7.744;2023-02-12T08:41:14;83334.38;;;-146.98;100.00
28432;BME280;15664;51.302;7.744;2023-02-12T08:43:41;83352.72;;;-146.98;100.00
28432;BME280;15664;51.302;7.744;2023-02-12T08:46:12;83305.88;;;-146.98;100.00
28432;BME280;15664;51.302;7.744;2023-02-12T08:48:38;83336.41;;;-146.98;100.00
28432;BME280;15664;51.302;7.744;2023-02-12T08:51:16;83346.59;;;-146.98;100.00
28432;BME280;15664;51.302;7.744;2023-02-12T08:53:44;83346.59;;;-146.98;100.00
28432;BME280;15664;51.302;7.744;2023-02-12T08:56:13;83385.31;;;-146.98;100.00
28432;BME280;15664;51.302;7.744;2023-02-12T08:58:38;83307.91;;;-146.98;100.00
28432;BME280;15664;51.302;7.744;2023-02-12T09:01:08;83320.13;;;-146.98;100.00
28432;BME280;15664;51.302;7.744;2023-02-12T09:03:34;83307.91;;;-146.98;100.00
28432;BME280;15664;51.302;7.744;2023-02-12T09:06:03;83283.47;;;-146.98;99.52
28432;BME280;15664;51.302;7.744;2023-02-12T09:08:30;83356.78;;;-146.98;99.17
28432;BME280;15664;51.302;7.744;2023-02-12T09:10:55;83305.88;;;-146.98;99.20
28432;BME280;15664;51.302;7.744;2023-02-12T09:13:21;83348.66;;;-146.98;98.91
28432;BME280;15664;51.302;7.744;2023-02-12T09:15:46;83320.13;;;-146.98;99.42
28432;BME280;15664;51.302;7.744;2023-02-12T09:18:13;83340.50;;;-146.98;99.19
28432;BME280;15664;51.302;7.744;2023-02-12T09:20:41;83334.38;;;-146.98;99.70
28432;BME280;15664;51.302;7.744;2023-02-12T09:23:10;83314.03;;;-146.98;98.09
28432;BME280;15664;51.302;7.744;2023-02-12T09:25:44;83320.13;;;-146.98;98.04
28432;BME280;15664;51.302;7.744;2023-02-12T09:28:11;83320.13;;;-146.98;97.31
28432;BME280;15664;51.302;7.744;2023-02-12T09:30:38;83281.44;;;-146.98;97.27
28432;BME280;15664;51.302;7.744;2023-02-12T09:33:05;83311.97;;;-146.98;97.56
28432;BME280;15664;51.302;7.744;2023-02-12T09:35:35;83259.03;;;-146.98;97.11
28432;BME280;15664;51.302;7.744;2023-02-12T09:38:02;83252.94;;;-146.98;96.92
28432;BME280;15664;51.302;7.744;2023-02-12T09:40:36;83250.88;;;-146.98;95.52
28432;BME280;15664;51.302;7.744;2023-02-12T09:43:18;83226.44;;;-146.98;95.15
28432;BME280;15664;51.302;7.744;2023-02-12T09:45:56;83130.75;;;-146.98;92.88
28432;BME280;15664;51.302;7.744;2023-02-12T09:51:08;83167.41;;;-146.98;93.24
28432;BME280;15664;51.302;7.744;2023-02-12T09:53:38;83159.25;;;-146.98;92.81
28432;BME280;15664;51.302;7.744;2023-02-12T09:56:12;83151.09;;;-146.98;91.48
28432;BME280;15664;51.302;7.744;2023-02-12T09:58:43;83222.38;;;-146.98;91.42
28432;BME280;15664;51.302;7.744;2023-02-12T10:01:11;83202.00;;;-146.98;92.48
28432;BME280;15664;51.302;7.744;2023-02-12T10:03:38;83202.00;;;-146.98;92.88
28432;BME280;15664;51.302;7.744;2023-02-12T10:06:06;83244.78;;;-146.98;92.85
28432;BME280;15664;51.302;7.744;2023-02-12T10:08:59;83206.09;;;-146.98;93.51
28432;BME280;15664;51.302;7.744;2023-02-12T10:14:09;83230.53;;;-146.98;91.96
28432;BME280;15664;51.302;7.744;2023-02-12T10:16:48;83165.38;;;-146.98;90.42
28432;BME280;15664;51.302;7.744;2023-02-12T10:25:13;83145.00;;;-146.98;89.73
28432;BME280;15664;51.302;7.744;2023-02-12T10:27:49;83151.09;;;-146.98;90.06
28432;BME280;15664;51.302;7.744;2023-02-12T10:30:20;83179.63;;;-146.98;90.62
28432;BME280;15664;51.302;7.744;2023-02-12T10:32:54;83181.66;;;-146.98;91.39
28432;BME280;15664;51.302;7.744;2023-02-12T10:35:23;83197.94;;;-146.98;90.55
28432;BME280;15664;51.302;7.744;2023-02-12T10:40:30;83173.50;;;-146.98;89.73
28432;BME280;15664;51.302;7.744;2023-02-12T10:42:59;83185.72;;;-146.98;89.38
28432;BME280;15664;51.302;7.744;2023-02-12T10:45:39;83202.00;;;-146.98;89.25
28432;BME280;15664;51.302;7.744;2023-02-12T10:48:23;83163.31;;;-146.98;89.18
28432;BME280;15664;51.302;7.744;2023-02-12T10:51:11;83153.13;;;-146.98;88.86
28432;BME280;15664;51.302;7.744;2023-02-12T10:53:44;83163.31;;;-146.98;88.93
28432;BME280;15664;51.302;7.744;2023-02-12T10:56:17;83153.13;;;-146.98;88.70
28432;BME280;15664;51.302;7.744;2023-02-12T10:58:55;83157.22;;;-146.98;88.08
28432;BME280;15664;51.302;7.744;2023-02-12T11:01:33;83179.63;;;-146.98;87.87
28432;BME280;15664;51.302;7.744;2023-02-12T11:04:28;83193.88;;;-146.98;88.43
28432;BME280;15664;51.302;7.744;2023-02-12T11:10:01;83169.44;;;-146.98;88.98
28432;BME280;15664;51.302;7.744;2023-02-12T11:12:30;83142.97;;;-146.98;89.52
28432;BME280;15664;51.302;7.744;2023-02-12T11:14:58;83171.47;;;-146.98;89.41
28432;BME280;15664;51.302;7.744;2023-02-12T11:17:29;83130.75;;;-146.98;88.68
28432;BME280;15664;51.302;7.744;2023-02-12T11:20:14;83128.72;;;-146.98;88.28
28432;BME280;15664;51.302;7.744;2023-02-12T11:22:58;83112.41;;;-146.98;87.47
28432;BME280;15664;51.302;7.744;2023-02-12T11:25:30;83136.84;;;-146.98;86.92
28432;BME280;15664;51.302;7.744;2023-02-12T11:30:26;83181.66;;;-146.98;86.46
28432;BME280;15664;51.302;7.744;2023-02-12T11:32:52;83153.13;;;-146.98;86.44
28432;BME280;15664;51.302;7.744;2023-02-12T11:35:21;83165.38;;;-146.98;86.52
28432;BME280;15664;51.302;7.744;2023-02-12T11:37:58;83153.13;;;-146.98;86.77
28432;BME280;15664;51.302;7.744;2023-02-12T11:40:27;83165.38;;;-146.98;86.79
28432;BME280;15664;51.302;7.744;2023-02-12T11:42:56;83159.25;;;-146.98;86.79
28432;BME280;15664;51.302;7.744;2023-02-12T11:45:28;83212.19;;;-146.98;88.96
28432;BME280;15664;51.302;7.744;2023-02-12T11:47:55;83161.28;;;-146.98;89.11
28432;BME280;15664;51.302;7.744;2023-02-12T11:50:28;83197.94;;;-146.98;89.02
28432;BME280;15664;51.302;7.744;2023-02-12T11:52:59;83214.22;;;-146.98;89.55
28432;BME280;15664;51.302;7.744;2023-02-12T11:55:30;83206.09;;;-146.98;90.30
28432;BME280;15664;51.302;7.744;2023-02-12T11:58:03;83206.09;;;-146.98;90.11
28432;BME280;15664;51.302;7.744;2023-02-12T12:01:07;83197.94;;;-146.98;89.67
28432;BME280;15664;51.302;7.744;2023-02-12T12:06:43;83179.63;;;-146.98;90.37
28432;BME280;15664;51.302;7.744;2023-02-12T12:09:26;83195.91;;;-146.98;89.56
28432;BME280;15664;51.302;7.744;2023-02-12T12:12:17;83212.19;;;-146.98;88.90
28432;BME280;15664;51.302;7.744;2023-02-12T12:14:55;83149.06;;;-146.98;88.92
28432;BME280;15664;51.302;7.744;2023-02-12T12:17:53;83175.53;;;-146.98;88.94
28432;BME280;15664;51.302;7.744;2023-02-12T12:20:52;83181.66;;;-146.98;88.75
28432;BME280;15664;51.302;7.744;2023-02-12T12:23:30;83151.09;;;-146.98;88.52
28432;BME280;15664;51.302;7.744;2023-02-12T12:26:05;83214.22;;;-146.98;88.08
28432;BME280;15664;51.302;7.744;2023-02-12T12:28:49;83165.38;;;-146.98;88.26
28432;BME280;15664;51.302;7.744;2023-02-12T12:31:24;83161.28;;;-146.98;87.92
28432;BME280;15664;51.302;7.744;2023-02-12T12:33:56;83157.22;;;-146.98;87.70
28432;BME280;15664;51.302;7.744;2023-02-12T12:39:23;83157.22;;;-146.98;87.30
28432;BME280;15664;51.302;7.744;2023-02-12T12:42:13;83161.28;;;-146.98;87.09
28432;BME280;15664;51.302;7.744;2023-02-12T12:50:17;83197.94;;;-146.98;87.35
28432;BME280;15664;51.302;7.744;2023-02-12T12:56:05;83210.16;;;-146.98;87.60
28432;BME280;15664;51.302;7.744;2023-02-12T13:01:49;83218.31;;;-146.98;87.36
28432;BME280;15664;51.302;7.744;2023-02-12T13:07:24;83173.50;;;-146.98;87.77
28432;BME280;15664;51.302;7.744;2023-02-12T13:10:18;83187.75;;;-146.98;88.51
28432;BME280;15664;51.302;7.744;2023-02-12T13:21:17;83193.88;;;-146.98;87.92
28432;BME280;15664;51.302;7.744;2023-02-12T13:28:52;83222.38;;;-146.98;87.46
28432;BME280;15664;51.302;7.744;2023-02-12T13:31:22;83183.69;;;-146.98;87.56
28432;BME280;15664;51.302;7.744;2023-02-12T13:33:54;83193.88;;;-146.98;87.93
28432;BME280;15664;51.302;7.744;2023-02-12T13:36:20;83206.09;;;-146.98;87.74
28432;BME280;15664;51.302;7.744;2023-02-12T13:38:59;83169.44;;;-146.98;87.93
28432;BME280;15664;51.302;7.744;2023-02-12T13:41:26;83187.75;;;-146.98;87.59
28432;BME280;15664;51.302;7.744;2023-02-12T13:44:13;83187.75;;;-146.98;87.18
28432;BME280;15664;51.302;7.744;2023-02-12T13:46:54;83142.97;;;-146.98;86.82
28432;BME280;15664;51.302;7.744;2023-02-12T13:52:07;83234.59;;;-146.98;87.27
28432;BME280;15664;51.302;7.744;2023-02-12T13:54:43;83197.94;;;-146.98;87.30
28432;BME280;15664;51.302;7.744;2023-02-12T13:57:15;83230.53;;;-146.98;87.54
28432;BME280;15664;51.302;7.744;2023-02-12T13:59:49;83210.16;;;-146.98;87.62
28432;BME280;15664;51.302;7.744;2023-02-12T14:02:26;83240.72;;;-146.98;87.90
28432;BME280;15664;51.302;7.744;2023-02-12T14:07:18;83252.94;;;-146.98;87.47
28432;BME280;15664;51.302;7.744;2023-02-12T14:09:59;83183.69;;;-146.98;87.52
28432;BME280;15664;51.302;7.744;2023-02-12T14:14:54;83185.72;;;-146.98;87.05
28432;BME280;15664;51.302;7.744;2023-02-12T14:20:21;83187.75;;;-146.98;87.04
28432;BME280;15664;51.302;7.744;2023-02-12T14:27:49;83193.88;;;-146.98;86.29
28432;BME280;15664;51.302;7.744;2023-02-12T14:37:52;83228.50;;;-146.98;86.68
28432;BME280;15664;51.302;7.744;2023-02-12T14:40:40;83222.38;;;-146.98;87.29